createdAt,value
2017-12-05T00:01:43.871Z,20.03
2017-12-05T00:04:11.453Z,15.10
2017-12-05T00:06:39.076Z,10.30
2017-12-05T00:09:06.611Z,14.00
2017-12-05T00:11:34.169Z,8.30
2017-12-05T00:14:01.677Z,8.93
2017-12-05T00:16:29.191Z,11.50
2017-12-05T00:18:56.773Z,12.30
2017-12-05T00:21:24.333Z,21.83
2017-12-05T00:23:51.882Z,13.87
2017-12-05T00:26:19.451Z,10.43
2017-12-05T00:28:46.985Z,19.47
2017-12-05T00:31:14.511Z,8.97
2017-12-05T00:33:42.031Z,14.33
2017-12-05T00:36:09.542Z,9.87
2017-12-05T00:38:37.074Z,14.50
2017-12-05T00:41:04.711Z,10.60
2017-12-05T00:43:32.251Z,11.53
2017-12-05T00:45:59.767Z,12.60
2017-12-05T00:48:27.304Z,10.77
2017-12-05T00:50:54.932Z,14.03
2017-12-05T00:53:22.451Z,11.23
2017-12-05T00:55:49.964Z,13.23
2017-12-05T00:58:17.477Z,13.87
2017-12-05T01:00:44.988Z,15.33
2017-12-05T01:03:12.510Z,12.83
2017-12-05T01:05:40.106Z,11.57
2017-12-05T01:08:07.622Z,14.80
2017-12-05T01:10:35.148Z,14.60
2017-12-05T01:13:02.674Z,11.60
2017-12-05T01:15:30.218Z,13.20
2017-12-05T01:17:57.730Z,17.70
2017-12-05T01:20:25.250Z,17.70
2017-12-05T01:22:52.766Z,12.63
2017-12-05T01:25:20.291Z,19.23
2017-12-05T01:27:47.805Z,11.20
2017-12-05T01:30:15.385Z,14.03
2017-12-05T01:32:42.898Z,12.20
2017-12-05T01:35:10.450Z,16.07
2017-12-05T01:37:37.977Z,13.67
2017-12-05T01:40:05.494Z,15.70
2017-12-05T01:42:33.020Z,10.43
2017-12-05T01:45:00.549Z,14.37
2017-12-05T01:47:28.084Z,14.67
2017-12-05T01:49:55.603Z,12.33
2017-12-05T01:52:23.145Z,10.37
2017-12-05T01:54:50.667Z,12.23
2017-12-05T01:57:18.183Z,12.60
2017-12-05T01:59:45.814Z,16.67
2017-12-05T02:02:13.371Z,12.60
2017-12-05T02:04:40.890Z,13.47
2017-12-05T02:07:08.491Z,11.67
2017-12-05T02:09:36.019Z,11.20
2017-12-05T02:12:03.537Z,11.17
2017-12-05T02:14:31.054Z,13.83
2017-12-05T02:16:58.571Z,10.50
2017-12-05T02:19:26.185Z,13.27
2017-12-05T02:21:53.717Z,10.27
2017-12-05T02:24:21.300Z,14.13
2017-12-05T02:26:48.789Z,9.03
2017-12-05T02:29:16.323Z,8.87
2017-12-05T02:31:43.882Z,9.30
2017-12-05T02:34:11.406Z,10.37
2017-12-05T02:36:38.917Z,14.33
2017-12-05T02:39:06.460Z,11.33
2017-12-05T02:41:33.975Z,8.40
2017-12-05T02:44:01.581Z,11.67
2017-12-05T02:46:29.133Z,9.80
2017-12-05T02:48:56.693Z,7.47
2017-12-05T02:51:24.207Z,7.60
2017-12-05T02:53:51.709Z,9.47
2017-12-05T02:56:19.213Z,6.57
2017-12-05T02:58:46.732Z,7.53
2017-12-05T03:01:14.238Z,6.93
2017-12-05T03:03:41.752Z,6.57
2017-12-05T03:06:09.310Z,7.37
2017-12-05T03:08:36.831Z,6.43
2017-12-05T03:11:04.359Z,7.47
2017-12-05T03:13:31.878Z,5.37
2017-12-05T03:15:59.388Z,5.87
2017-12-05T03:18:26.893Z,5.50
2017-12-05T03:20:54.468Z,7.03
2017-12-05T03:23:22.016Z,4.73
2017-12-05T03:25:49.588Z,4.40
2017-12-05T03:28:17.096Z,5.33
2017-12-05T03:30:44.643Z,5.50
2017-12-05T03:33:12.159Z,5.90
2017-12-05T03:35:39.666Z,5.87
2017-12-05T03:38:07.181Z,6.77
2017-12-05T03:40:34.700Z,5.50
2017-12-05T03:43:02.217Z,5.67
2017-12-05T03:45:29.737Z,6.30
2017-12-05T03:47:57.322Z,6.43
2017-12-05T03:50:24.843Z,5.80
2017-12-05T03:52:52.383Z,6.10
2017-12-05T03:55:19.888Z,5.13
2017-12-05T03:57:47.398Z,6.23
2017-12-05T04:00:14.925Z,4.77
2017-12-05T04:02:42.470Z,4.47
2017-12-05T04:05:09.974Z,5.33
2017-12-05T04:07:37.495Z,5.80
2017-12-05T04:10:05.055Z,6.80
2017-12-05T04:12:32.562Z,5.77
2017-12-05T04:15:00.072Z,5.03
2017-12-05T04:17:27.588Z,5.77
2017-12-05T04:19:55.130Z,5.40
2017-12-05T04:22:22.639Z,5.17
2017-12-05T04:24:50.146Z,5.17
2017-12-05T04:27:17.812Z,6.20
2017-12-05T04:29:45.296Z,5.50
2017-12-05T04:32:12.801Z,6.87
2017-12-05T04:34:40.304Z,6.10
2017-12-05T04:37:07.812Z,5.53
2017-12-05T04:39:35.335Z,5.50
2017-12-05T04:42:02.925Z,8.60
2017-12-05T04:44:30.443Z,6.50
2017-12-05T04:46:57.969Z,6.20
2017-12-05T04:49:25.597Z,8.53
2017-12-05T04:51:53.111Z,7.30
2017-12-05T04:54:20.624Z,7.47
2017-12-05T04:56:48.170Z,11.20
2017-12-05T04:59:15.738Z,12.60
2017-12-05T05:01:43.261Z,9.10
2017-12-05T05:04:10.872Z,11.70
2017-12-05T05:06:38.388Z,9.90
2017-12-05T05:09:05.899Z,12.83
2017-12-05T05:11:33.424Z,11.40
2017-12-05T05:14:00.956Z,11.40
2017-12-05T05:16:28.479Z,14.37
2017-12-05T05:18:55.995Z,11.50
2017-12-05T05:21:23.503Z,10.97
2017-12-05T05:23:51.031Z,14.43
2017-12-05T05:26:18.562Z,16.50
2017-12-05T05:28:46.088Z,20.67
2017-12-05T05:31:13.606Z,11.93
2017-12-05T05:33:41.151Z,17.10
2017-12-05T05:36:08.721Z,11.97
2017-12-05T05:38:36.251Z,14.47
2017-12-05T05:41:03.772Z,14.23
2017-12-05T05:43:31.281Z,11.47
2017-12-05T05:45:58.797Z,17.43
2017-12-05T05:48:26.334Z,12.63
2017-12-05T05:50:53.845Z,12.27
2017-12-05T05:53:21.358Z,14.87
2017-12-05T05:55:48.882Z,11.10
2017-12-05T05:58:16.454Z,10.93
2017-12-05T06:00:44.017Z,12.47
2017-12-05T06:03:11.549Z,12.40
2017-12-05T06:05:39.051Z,8.30
2017-12-05T06:08:06.570Z,10.93
2017-12-05T06:10:34.089Z,10.30
2017-12-05T06:13:01.609Z,7.57
2017-12-05T06:15:29.145Z,9.93
2017-12-05T06:17:56.674Z,9.43
2017-12-05T06:20:24.200Z,12.37
2017-12-05T06:22:51.753Z,11.03
2017-12-05T06:25:19.314Z,8.47
2017-12-05T06:27:46.838Z,11.50
2017-12-05T06:30:14.354Z,11.03
2017-12-05T06:32:41.870Z,9.30
2017-12-05T06:35:09.393Z,10.33
2017-12-05T06:37:36.988Z,9.87
2017-12-05T06:40:04.583Z,11.77
2017-12-05T06:42:32.093Z,10.00
2017-12-05T06:44:59.608Z,9.53
2017-12-05T06:47:27.111Z,8.83
2017-12-05T06:49:54.631Z,11.23
2017-12-05T06:52:22.130Z,7.63
2017-12-05T06:54:49.645Z,7.77
2017-12-05T06:57:17.185Z,7.80
2017-12-05T06:59:44.751Z,10.23
2017-12-05T07:02:12.300Z,9.33
2017-12-05T07:04:39.875Z,8.23
2017-12-05T07:07:07.380Z,7.70
2017-12-05T07:09:34.896Z,10.53
2017-12-05T07:12:02.448Z,6.03
2017-12-05T07:14:30.014Z,6.33
2017-12-05T07:16:57.563Z,9.20
2017-12-05T07:19:25.113Z,6.77
2017-12-05T07:21:52.689Z,6.30
2017-12-05T07:24:20.195Z,5.73
2017-12-05T07:26:47.706Z,7.90
2017-12-05T07:29:15.222Z,11.93
2017-12-05T07:31:42.753Z,6.60
2017-12-05T07:34:10.359Z,9.70
2017-12-05T07:36:37.878Z,4.63
2017-12-05T07:39:05.392Z,8.50
2017-12-05T07:41:32.914Z,8.27
2017-12-05T07:44:00.429Z,4.77
2017-12-05T07:46:27.934Z,5.50
2017-12-05T07:48:55.439Z,5.27
2017-12-05T07:51:22.990Z,4.53
2017-12-05T07:53:50.521Z,4.13
2017-12-05T07:56:18.035Z,3.77
2017-12-05T07:58:45.564Z,5.60
2017-12-05T08:01:13.068Z,7.87
2017-12-05T08:03:40.751Z,5.37
2017-12-05T08:06:08.258Z,4.87
2017-12-05T08:08:35.769Z,3.57
2017-12-05T08:11:03.295Z,3.90
2017-12-05T08:13:30.805Z,3.77
2017-12-05T08:15:58.309Z,3.20
2017-12-05T08:18:25.814Z,3.60
2017-12-05T08:20:53.335Z,5.47
2017-12-05T08:23:20.859Z,4.07
2017-12-05T08:25:48.360Z,3.17
2017-12-05T08:28:15.881Z,4.57
2017-12-05T08:30:43.400Z,3.93
2017-12-05T08:33:10.910Z,3.77
2017-12-05T08:35:38.449Z,4.57
2017-12-05T08:38:05.956Z,3.40
2017-12-05T08:40:33.470Z,4.83
2017-12-05T08:43:00.985Z,3.83
2017-12-05T08:45:28.495Z,8.07
2017-12-05T08:47:55.996Z,3.03
2017-12-05T08:50:23.519Z,2.80
2017-12-05T08:52:51.028Z,2.60
2017-12-05T08:55:18.595Z,3.00
2017-12-05T08:57:46.206Z,3.90
2017-12-05T09:00:13.762Z,3.10
2017-12-05T09:02:41.291Z,3.27
2017-12-05T09:05:08.800Z,4.93
2017-12-05T09:07:36.308Z,2.60
2017-12-05T09:10:03.855Z,2.50
2017-12-05T09:12:31.375Z,2.13
2017-12-05T09:14:58.917Z,3.50
2017-12-05T09:17:26.429Z,3.57
2017-12-05T09:19:53.964Z,5.30
2017-12-05T09:22:21.515Z,3.50
2017-12-05T09:24:49.025Z,3.20
2017-12-05T09:27:16.865Z,2.67
2017-12-05T09:29:46.144Z,5.33
2017-12-05T09:32:15.612Z,3.47
2017-12-05T09:34:45.987Z,4.83
2017-12-05T09:37:15.745Z,3.07
2017-12-05T09:39:43.257Z,4.20
2017-12-05T09:42:10.785Z,5.27
2017-12-05T09:44:38.313Z,3.90
2017-12-05T09:47:05.903Z,5.40
2017-12-05T09:49:33.462Z,6.73
2017-12-05T09:52:00.975Z,4.43
2017-12-05T09:54:28.484Z,5.03
2017-12-05T09:56:56.782Z,7.30
2017-12-05T09:59:24.285Z,6.07
2017-12-05T10:01:51.815Z,8.13
2017-12-05T10:04:19.319Z,9.87
2017-12-05T10:06:46.825Z,7.43
2017-12-05T10:09:14.352Z,5.90
2017-12-05T10:11:41.878Z,10.53
2017-12-05T10:14:09.464Z,6.60
2017-12-05T10:16:36.974Z,7.27
2017-12-05T10:19:04.581Z,9.47
2017-12-05T10:21:32.137Z,9.17
2017-12-05T10:23:59.641Z,9.47
2017-12-05T10:26:27.158Z,9.33
2017-12-05T10:28:54.670Z,5.90
2017-12-05T10:31:22.325Z,9.47
2017-12-05T10:33:49.946Z,11.80
2017-12-05T10:36:17.454Z,11.17
2017-12-05T10:38:44.954Z,6.97
2017-12-05T10:41:12.453Z,6.97
2017-12-05T10:43:39.962Z,7.40
2017-12-05T10:46:07.472Z,8.03
2017-12-05T10:48:34.977Z,7.93
2017-12-05T10:51:02.485Z,9.77
2017-12-05T10:53:30.077Z,7.57
2017-12-05T10:55:57.594Z,5.53
2017-12-05T10:58:25.106Z,5.90
2017-12-05T11:00:52.624Z,7.13
2017-12-05T11:03:20.127Z,5.83
2017-12-05T11:05:47.641Z,9.20
2017-12-05T11:08:15.144Z,8.43
2017-12-05T11:10:42.668Z,10.90
2017-12-05T11:13:10.284Z,7.43
2017-12-05T11:15:37.840Z,7.47
2017-12-05T11:18:05.349Z,6.70
2017-12-05T11:20:32.861Z,7.40
2017-12-05T11:23:00.378Z,8.20
2017-12-05T11:25:27.921Z,7.50
2017-12-05T11:27:55.422Z,7.03
2017-12-05T11:30:22.930Z,4.37
2017-12-05T11:32:50.438Z,6.30
2017-12-05T11:35:17.955Z,5.50
2017-12-05T11:37:45.457Z,6.07
2017-12-05T11:40:12.971Z,6.13
2017-12-05T11:42:40.474Z,6.33
2017-12-05T11:45:07.986Z,6.13
2017-12-05T11:47:35.626Z,3.97
2017-12-05T11:50:03.174Z,4.87
2017-12-05T11:52:30.686Z,4.20
2017-12-05T11:54:58.206Z,4.93
2017-12-05T11:57:25.717Z,3.80
2017-12-05T11:59:53.784Z,3.93
2017-12-05T12:02:21.300Z,4.40
2017-12-05T12:04:48.804Z,5.10
2017-12-05T12:07:16.322Z,4.40
2017-12-05T12:09:43.866Z,4.90
2017-12-05T12:12:11.416Z,6.17
2017-12-05T12:14:38.926Z,4.70
2017-12-05T12:17:06.433Z,5.13
2017-12-05T12:19:33.958Z,5.77
2017-12-05T12:22:01.497Z,7.47
2017-12-05T12:24:29.110Z,8.13
2017-12-05T12:26:56.616Z,6.13
2017-12-05T12:29:24.171Z,5.93
2017-12-05T12:31:51.750Z,7.60
2017-12-05T12:34:19.298Z,7.17
2017-12-05T12:36:46.814Z,6.53
2017-12-05T12:39:14.323Z,7.33
2017-12-05T12:41:41.952Z,6.73
2017-12-05T12:44:09.461Z,5.93
2017-12-05T12:46:36.970Z,10.23
2017-12-05T12:49:04.539Z,5.90
2017-12-05T12:51:32.192Z,6.73
2017-12-05T12:53:59.766Z,7.53
2017-12-05T12:56:27.318Z,8.60
2017-12-05T12:58:54.962Z,8.63
2017-12-05T13:01:22.512Z,9.87
2017-12-05T13:03:50.023Z,8.90
2017-12-05T13:06:17.541Z,10.17
2017-12-05T13:08:45.058Z,10.87
2017-12-05T13:11:12.586Z,10.13
2017-12-05T13:13:40.091Z,8.93
2017-12-05T13:16:07.713Z,11.13
2017-12-05T13:18:35.227Z,9.03
2017-12-05T13:21:02.728Z,8.97
2017-12-05T13:23:30.239Z,10.60
2017-12-05T13:25:57.750Z,11.00
2017-12-05T13:28:25.292Z,11.33
2017-12-05T13:30:52.809Z,9.27
2017-12-05T13:33:20.834Z,10.90
2017-12-05T13:35:48.654Z,10.57
2017-12-05T13:38:17.197Z,10.63
2017-12-05T13:40:44.820Z,10.77
2017-12-05T13:43:13.443Z,10.63
2017-12-05T13:45:40.960Z,14.37
2017-12-05T13:48:08.546Z,10.60
2017-12-05T13:50:37.183Z,11.97
2017-12-05T13:53:05.955Z,12.73
2017-12-05T13:55:33.550Z,11.83
2017-12-05T13:58:13.423Z,14.50
2017-12-05T14:01:10.103Z,10.77
2017-12-05T14:03:38.501Z,13.13
2017-12-05T14:06:06.731Z,14.63
2017-12-05T14:08:34.245Z,12.53
2017-12-05T14:11:02.503Z,11.50
2017-12-05T14:13:32.233Z,12.67
2017-12-05T14:15:59.780Z,9.83
2017-12-05T14:18:27.319Z,12.43
2017-12-05T14:20:54.853Z,13.20
2017-12-05T14:23:22.388Z,12.37
2017-12-05T14:25:49.910Z,13.73
2017-12-05T14:28:17.450Z,12.97
2017-12-05T14:30:46.708Z,13.63
2017-12-05T14:33:14.224Z,15.73
2017-12-05T14:35:41.739Z,12.03
2017-12-05T14:38:09.345Z,14.50
2017-12-05T14:40:38.553Z,14.10
2017-12-05T14:43:06.095Z,12.80
2017-12-05T14:45:33.613Z,14.83
2017-12-05T14:48:03.024Z,15.00
2017-12-05T14:50:31.531Z,16.63
2017-12-05T14:53:01.946Z,17.50
2017-12-05T14:55:29.471Z,14.43
2017-12-05T14:57:56.992Z,16.93
2017-12-05T15:00:25.790Z,15.00
2017-12-05T15:02:54.281Z,17.23
2017-12-05T15:05:21.816Z,15.20
2017-12-05T15:07:49.352Z,13.87
2017-12-05T15:10:16.868Z,20.77
2017-12-05T15:12:45.394Z,14.80
2017-12-05T15:15:12.922Z,13.17
2017-12-05T15:17:40.441Z,15.57
2017-12-05T15:20:07.972Z,15.70
2017-12-05T15:22:35.489Z,14.97
2017-12-05T15:25:03.720Z,14.90
2017-12-05T15:27:31.240Z,18.93
2017-12-05T15:29:58.758Z,17.37
2017-12-05T15:32:26.303Z,14.90
2017-12-05T15:34:53.822Z,15.37
2017-12-05T15:37:21.356Z,14.40
2017-12-05T15:39:51.048Z,16.60
2017-12-05T15:42:18.574Z,17.57
2017-12-05T15:44:49.929Z,17.33
2017-12-05T15:47:17.514Z,14.67
2017-12-05T15:49:45.096Z,16.23
2017-12-05T15:52:16.739Z,13.43
2017-12-05T15:54:48.635Z,17.03
2017-12-05T15:57:19.662Z,15.57
2017-12-05T15:59:48.207Z,16.37
2017-12-05T16:02:29.878Z,17.10
2017-12-05T16:04:57.465Z,15.07
2017-12-05T16:07:25.007Z,16.27
2017-12-05T16:09:53.485Z,14.90
2017-12-05T16:12:21.035Z,15.30
2017-12-05T16:14:51.993Z,14.27
2017-12-05T16:17:19.509Z,13.40
2017-12-05T16:19:47.057Z,15.23
2017-12-05T16:22:16.310Z,12.83
2017-12-05T16:24:43.936Z,12.80
2017-12-05T16:27:11.516Z,12.63
2017-12-05T16:29:39.029Z,17.30
2017-12-05T16:32:06.560Z,13.87
2017-12-05T16:34:34.198Z,12.07
2017-12-05T16:37:02.302Z,11.93
2017-12-05T16:39:30.623Z,10.57
2017-12-05T16:41:59.244Z,11.97
2017-12-05T16:44:26.862Z,14.77
2017-12-05T16:46:54.394Z,11.93
2017-12-05T16:49:21.951Z,10.33
2017-12-05T16:51:49.498Z,12.67
2017-12-05T16:54:17.096Z,12.43
2017-12-05T16:56:44.621Z,11.93
2017-12-05T16:59:12.155Z,12.40
2017-12-05T17:01:43.363Z,11.87
2017-12-05T17:04:10.899Z,11.47
2017-12-05T17:06:39.133Z,11.23
2017-12-05T17:09:08.780Z,14.70
2017-12-05T17:11:36.574Z,14.00
2017-12-05T17:14:04.069Z,14.00
2017-12-05T17:16:31.591Z,19.13
2017-12-05T17:18:59.402Z,17.67
2017-12-05T17:21:26.945Z,17.67
2017-12-05T17:23:55.367Z,18.27
2017-12-05T17:26:23.833Z,17.23
2017-12-05T17:28:51.382Z,18.30
2017-12-05T17:31:19.657Z,21.67
2017-12-05T17:33:47.199Z,20.13
2017-12-05T17:36:14.717Z,18.03
2017-12-05T17:38:42.250Z,21.43
2017-12-05T17:41:09.792Z,18.63
2017-12-05T17:43:37.317Z,20.50
2017-12-05T17:46:04.870Z,23.17
2017-12-05T17:48:32.384Z,22.47
2017-12-05T17:50:59.906Z,24.00
2017-12-05T17:53:27.423Z,22.73
2017-12-05T17:55:55.849Z,25.83
2017-12-05T17:58:23.382Z,22.30
2017-12-05T18:00:50.918Z,18.30
2017-12-05T18:03:18.432Z,24.13
2017-12-05T18:05:45.962Z,22.73
2017-12-05T18:08:13.492Z,24.10
2017-12-05T18:10:41.018Z,23.13
2017-12-05T18:13:09.103Z,25.70
2017-12-05T18:15:36.634Z,21.03
2017-12-05T18:18:04.496Z,22.77
2017-12-05T18:20:32.024Z,25.80
2017-12-05T18:23:00.256Z,25.03
2017-12-05T18:25:27.777Z,25.13
2017-12-05T18:27:55.291Z,27.87
2017-12-05T18:30:22.809Z,23.97
2017-12-05T18:32:51.000Z,26.07
2017-12-05T18:35:18.512Z,23.67
2017-12-05T18:37:46.042Z,23.50
2017-12-05T18:40:13.578Z,23.83
2017-12-05T18:42:42.061Z,25.63
2017-12-05T18:45:09.595Z,27.43
2017-12-05T18:47:37.846Z,24.17
2017-12-05T18:50:05.371Z,29.67
2017-12-05T18:52:34.042Z,23.33
2017-12-05T18:55:01.578Z,27.77
2017-12-05T18:57:29.098Z,25.77
2017-12-05T18:59:56.612Z,26.20
2017-12-05T19:02:24.894Z,26.60
2017-12-05T19:04:52.426Z,28.63
2017-12-05T19:07:21.131Z,22.20
2017-12-05T19:09:48.669Z,25.97
2017-12-05T19:12:16.837Z,23.43
2017-12-05T19:14:44.364Z,26.23
2017-12-05T19:17:13.358Z,24.90
2017-12-05T19:19:40.882Z,25.27
2017-12-05T19:22:08.406Z,27.47
2017-12-05T19:24:35.933Z,25.10
2017-12-05T19:27:03.471Z,25.73
2017-12-05T19:29:30.992Z,22.40
2017-12-05T19:31:58.509Z,27.80
2017-12-05T19:34:26.052Z,23.50
2017-12-05T19:36:53.603Z,26.77
2017-12-05T19:39:21.731Z,29.07
2017-12-05T19:41:49.273Z,22.70
2017-12-05T19:44:16.808Z,24.10
2017-12-05T19:46:45.818Z,23.50
2017-12-05T19:49:13.348Z,27.37
2017-12-05T19:51:40.873Z,29.23
2017-12-05T19:54:08.765Z,27.47
2017-12-05T19:56:36.521Z,28.33
2017-12-05T19:59:04.052Z,25.37
2017-12-05T20:01:31.589Z,22.20
2017-12-05T20:03:59.124Z,20.97
2017-12-05T20:06:28.507Z,25.77
2017-12-05T20:08:56.745Z,24.93
2017-12-05T20:11:25.412Z,23.30
2017-12-05T20:13:52.941Z,24.23
2017-12-05T20:16:21.527Z,24.70
2017-12-05T20:18:49.089Z,25.00
2017-12-05T20:21:17.448Z,25.17
2017-12-05T20:23:44.947Z,24.77
2017-12-05T20:26:12.709Z,24.20
2017-12-05T20:28:41.707Z,23.27
2017-12-05T20:31:11.720Z,24.37
2017-12-05T20:33:39.259Z,21.63
2017-12-05T20:36:07.386Z,23.40
2017-12-05T20:38:34.918Z,22.77
2017-12-05T20:41:02.465Z,21.53
2017-12-05T20:43:30.227Z,28.67
2017-12-05T20:45:58.091Z,26.73
2017-12-05T20:48:25.628Z,24.87
2017-12-05T20:50:53.153Z,22.57
2017-12-05T20:53:20.681Z,25.03
2017-12-05T20:55:48.203Z,26.77
2017-12-05T20:58:15.748Z,27.70
2017-12-05T21:00:43.295Z,26.87
2017-12-05T21:03:10.825Z,26.57
2017-12-05T21:05:39.118Z,22.97
2017-12-05T21:08:06.671Z,28.30
2017-12-05T21:10:34.906Z,25.13
2017-12-05T21:13:02.438Z,28.13
2017-12-05T21:15:29.962Z,23.93
2017-12-05T21:17:57.535Z,27.50
2017-12-05T21:20:25.072Z,28.73
2017-12-05T21:22:56.086Z,27.83
2017-12-05T21:25:23.626Z,27.13
2017-12-05T21:27:51.159Z,25.83
2017-12-05T21:30:18.692Z,28.17
2017-12-05T21:32:50.332Z,24.60
2017-12-05T21:35:17.857Z,27.07
2017-12-05T21:37:45.393Z,24.67
2017-12-05T21:40:13.206Z,26.23
2017-12-05T21:42:40.733Z,26.70
2017-12-05T21:45:08.255Z,24.90
2017-12-05T21:47:35.769Z,30.23
2017-12-05T21:50:03.278Z,27.93
2017-12-05T21:52:31.636Z,23.20
2017-12-05T21:54:59.156Z,26.60
2017-12-05T21:57:26.681Z,25.53
2017-12-05T21:59:54.200Z,24.33
2017-12-05T22:02:21.725Z,26.10
2017-12-05T22:04:49.249Z,25.43
2017-12-05T22:07:16.776Z,27.07
2017-12-05T22:09:45.121Z,24.37
2017-12-05T22:12:12.637Z,24.20
2017-12-05T22:14:40.205Z,23.87
2017-12-05T22:17:07.960Z,25.77
2017-12-05T22:19:36.182Z,27.10
2017-12-05T22:22:03.704Z,27.70
2017-12-05T22:24:31.869Z,25.77
2017-12-05T22:27:00.271Z,28.97
2017-12-05T22:29:27.788Z,27.23
2017-12-05T22:31:55.318Z,27.93
2017-12-05T22:34:22.844Z,27.90
2017-12-05T22:36:50.369Z,30.67
2017-12-05T22:39:17.883Z,27.83
2017-12-05T22:41:45.532Z,30.93
2017-12-05T22:44:13.048Z,35.40
2017-12-05T22:46:40.570Z,31.27
2017-12-05T22:49:08.101Z,29.03
2017-12-05T22:51:35.623Z,32.53
2017-12-05T22:54:03.150Z,31.30
2017-12-05T22:56:30.676Z,28.00
2017-12-05T22:58:58.208Z,33.63
2017-12-05T23:01:26.142Z,29.63
2017-12-05T23:03:53.670Z,28.37
2017-12-05T23:06:21.194Z,27.33
2017-12-05T23:08:48.723Z,26.07
2017-12-05T23:11:16.239Z,25.37
2017-12-05T23:13:43.763Z,25.90
2017-12-05T23:16:11.292Z,24.77
2017-12-05T23:18:38.822Z,24.80
2017-12-05T23:21:08.185Z,22.73
2017-12-05T23:23:35.753Z,24.13
2017-12-05T23:26:04.091Z,26.30
2017-12-05T23:28:32.526Z,24.17
2017-12-05T23:31:00.916Z,25.80
2017-12-05T23:33:28.426Z,22.97
2017-12-05T23:35:56.112Z,22.50
2017-12-05T23:38:23.973Z,21.60
2017-12-05T23:40:52.416Z,26.40
2017-12-05T23:43:19.944Z,23.90
2017-12-05T23:45:47.474Z,19.30
2017-12-05T23:48:15.648Z,20.17
2017-12-05T23:50:43.883Z,23.17
2017-12-05T23:53:11.392Z,19.57
2017-12-05T23:55:39.212Z,20.97
2017-12-05T23:58:07.625Z,21.10
